createdAt,value
2022-08-12T00:00:20.315Z,20.90
2022-08-12T00:03:05.816Z,20.70
2022-08-12T00:06:04.154Z,20.60
2022-08-12T00:08:55.371Z,20.80
2022-08-12T00:11:42.462Z,21.20
2022-08-12T00:14:28.122Z,21.30
2022-08-12T00:17:14.031Z,21.20
2022-08-12T00:19:59.891Z,21.00
2022-08-12T00:22:46.862Z,21.10
2022-08-12T00:26:21.402Z,20.90
2022-08-12T00:29:01.002Z,20.70
2022-08-12T00:31:46.570Z,20.50
2022-08-12T00:34:33.646Z,20.50
2022-08-12T00:37:19.483Z,20.30
2022-08-12T00:40:11.422Z,20.20
2022-08-12T00:42:40.425Z,20.10
2022-08-12T00:45:07.821Z,19.80
2022-08-12T00:47:35.901Z,19.80
2022-08-12T00:50:04.674Z,19.70
2022-08-12T00:52:33.255Z,19.60
2022-08-12T00:55:01.705Z,19.60
2022-08-12T00:57:36.752Z,19.50
2022-08-12T01:00:12.281Z,19.50
2022-08-12T01:02:42.557Z,19.40
2022-08-12T01:05:30.954Z,19.30
2022-08-12T01:08:17.002Z,19.30
2022-08-12T01:11:04.626Z,19.30
2022-08-12T01:13:34.230Z,19.30
2022-08-12T01:16:03.883Z,19.30
2022-08-12T01:18:33.953Z,19.20
2022-08-12T01:21:09.584Z,19.10
2022-08-12T01:23:51.317Z,18.90
2022-08-12T01:26:21.110Z,18.80
2022-08-12T01:28:50.406Z,18.70
2022-08-12T01:31:19.465Z,18.70
2022-08-12T01:34:03.926Z,18.70
2022-08-12T01:36:54.975Z,18.70
2022-08-12T01:39:24.177Z,18.70
2022-08-12T01:41:54.141Z,18.60
2022-08-12T01:44:22.521Z,18.50
2022-08-12T01:47:05.950Z,18.50
2022-08-12T01:50:01.797Z,18.40
2022-08-12T01:52:33.385Z,18.30
2022-08-12T01:55:01.277Z,18.30
2022-08-12T01:57:57.797Z,18.30
2022-08-12T02:00:55.026Z,18.30
2022-08-12T02:04:12.097Z,18.20
2022-08-12T02:07:23.750Z,18.20
2022-08-12T02:10:50.971Z,18.10
2022-08-12T02:13:48.640Z,18.10
2022-08-12T02:16:46.892Z,18.10
2022-08-12T02:19:23.441Z,18.10
2022-08-12T02:22:14.786Z,18.10
2022-08-12T02:24:44.345Z,18.10
2022-08-12T02:27:13.495Z,18.10
2022-08-12T02:29:41.450Z,18.10
2022-08-12T02:32:09.218Z,18.20
2022-08-12T02:34:37.902Z,18.20
2022-08-12T02:37:05.091Z,18.20
2022-08-12T02:39:35.722Z,18.30
2022-08-12T02:42:04.752Z,18.40
2022-08-12T02:44:40.203Z,18.30
2022-08-12T02:47:58.449Z,18.30
2022-08-12T02:49:58.783Z,18.40
2022-08-12T02:52:27.354Z,18.40
2022-08-12T02:54:59.863Z,18.40
2022-08-12T02:57:26.819Z,18.30
2022-08-12T02:59:54.791Z,18.10
2022-08-12T03:02:24.260Z,18.20
2022-08-12T03:04:56.683Z,18.10
2022-08-12T03:07:49.339Z,18.00
2022-08-12T03:10:17.796Z,17.90
2022-08-12T03:12:49.819Z,17.80
2022-08-12T03:15:22.527Z,17.70
2022-08-12T03:18:30.343Z,17.60
2022-08-12T03:20:58.729Z,17.50
2022-08-12T03:23:29.874Z,17.50
2022-08-12T03:26:03.163Z,17.50
2022-08-12T03:28:53.176Z,17.40
2022-08-12T03:31:30.057Z,17.40
2022-08-12T03:34:03.423Z,17.40
2022-08-12T03:36:36.395Z,17.20
2022-08-12T03:39:15.980Z,17.20
2022-08-12T03:42:01.741Z,17.20
2022-08-12T03:45:00.817Z,17.10
2022-08-12T03:47:46.219Z,17.00
2022-08-12T03:50:32.003Z,17.00
2022-08-12T03:53:17.442Z,17.00
2022-08-12T03:56:02.740Z,16.90
2022-08-12T03:58:48.567Z,16.90
2022-08-12T04:01:15.621Z,16.90
2022-08-12T04:03:54.946Z,16.90
2022-08-12T04:06:34.477Z,16.90
2022-08-12T04:09:15.794Z,16.90
2022-08-12T04:12:04.031Z,16.80
2022-08-12T04:14:33.137Z,16.90
2022-08-12T04:17:00.639Z,16.90
2022-08-12T04:19:27.883Z,16.80
2022-08-12T04:22:01.324Z,16.80
2022-08-12T04:24:35.133Z,16.90
2022-08-12T04:27:05.507Z,16.90
2022-08-12T04:30:21.139Z,17.00
2022-08-12T04:32:20.555Z,17.20
2022-08-12T04:34:47.415Z,17.60
2022-08-12T04:37:16.094Z,17.80
2022-08-12T04:39:44.909Z,17.90
2022-08-12T04:42:11.940Z,18.00
2022-08-12T04:44:39.123Z,18.10
2022-08-12T04:47:06.109Z,18.10
2022-08-12T04:49:34.877Z,18.20
2022-08-12T04:52:02.822Z,18.30
2022-08-12T04:54:30.885Z,18.40
2022-08-12T04:57:04.747Z,18.50
2022-08-12T04:59:47.766Z,18.60
2022-08-12T05:02:22.772Z,18.60
2022-08-12T05:04:51.824Z,18.70
2022-08-12T05:07:20.125Z,18.70
2022-08-12T05:09:58.895Z,18.80
2022-08-12T05:12:34.327Z,19.00
2022-08-12T05:15:01.413Z,19.10
2022-08-12T05:17:28.630Z,19.10
2022-08-12T05:19:57.430Z,19.10
2022-08-12T05:22:27.217Z,19.20
2022-08-12T05:24:54.235Z,19.40
2022-08-12T05:27:22.672Z,19.50
2022-08-12T05:30:07.263Z,19.60
2022-08-12T05:32:37.087Z,19.90
2022-08-12T05:35:07.065Z,20.50
2022-08-12T05:37:37.029Z,21.50
2022-08-12T05:40:10.658Z,22.60
2022-08-12T05:42:38.319Z,23.80
2022-08-12T05:45:06.855Z,24.90
2022-08-12T05:47:42.553Z,25.90
2022-08-12T05:50:20.731Z,26.50
2022-08-12T05:52:48.117Z,27.30
2022-08-12T05:55:15.644Z,27.50
2022-08-12T05:57:48.421Z,27.50
2022-08-12T06:00:16.709Z,27.80
2022-08-12T06:02:43.763Z,28.20
2022-08-12T06:05:10.657Z,28.30
2022-08-12T06:08:01.528Z,28.40
2022-08-12T06:10:32.210Z,28.30
2022-08-12T06:13:04.804Z,28.70
2022-08-12T06:15:35.788Z,29.30
2022-08-12T06:18:13.740Z,29.70
2022-08-12T06:20:43.426Z,29.70
2022-08-12T06:23:12.011Z,29.70
2022-08-12T06:25:39.071Z,29.70
2022-08-12T06:28:15.819Z,30.10
2022-08-12T06:30:49.728Z,30.10
2022-08-12T06:33:59.898Z,30.80
2022-08-12T06:36:21.106Z,30.90
2022-08-12T06:38:49.810Z,30.60
2022-08-12T06:41:35.629Z,30.70
2022-08-12T06:44:05.612Z,31.30
2022-08-12T06:46:36.837Z,31.50
2022-08-12T06:49:04.093Z,31.20
2022-08-12T06:51:32.375Z,31.20
2022-08-12T06:54:00.818Z,30.80
2022-08-12T06:56:59.641Z,30.80
2022-08-12T06:59:15.839Z,30.90
2022-08-12T07:01:49.699Z,30.90
2022-08-12T07:04:36.932Z,31.10
2022-08-12T07:07:09.538Z,31.40
2022-08-12T07:10:04.682Z,31.70
2022-08-12T07:12:27.862Z,32.10
2022-08-12T07:14:56.757Z,32.50
2022-08-12T07:17:23.597Z,32.90
2022-08-12T07:19:52.063Z,33.20
2022-08-12T07:22:19.166Z,33.10
2022-08-12T07:25:06.112Z,33.60
2022-08-12T07:27:40.672Z,33.70
2022-08-12T07:30:09.848Z,33.70
2022-08-12T07:32:36.992Z,33.50
2022-08-12T07:35:04.314Z,33.50
2022-08-12T07:37:31.466Z,33.30
2022-08-12T07:39:59.350Z,33.30
2022-08-12T07:42:27.082Z,33.70
2022-08-12T07:44:54.996Z,33.70
2022-08-12T07:47:21.842Z,34.30
2022-08-12T07:50:03.373Z,34.30
2022-08-12T07:52:42.866Z,34.10
2022-08-12T07:55:10.849Z,34.30
2022-08-12T07:57:57.910Z,34.40
2022-08-12T08:00:26.442Z,34.20
2022-08-12T08:02:54.314Z,34.20
2022-08-12T08:05:23.663Z,34.50
2022-08-12T08:07:53.347Z,34.60
2022-08-12T08:10:20.976Z,34.50
2022-08-12T08:12:53.701Z,34.60
2022-08-12T08:15:58.954Z,34.30
2022-08-12T08:18:26.719Z,34.10
2022-08-12T08:20:55.560Z,34.30
2022-08-12T08:23:29.415Z,34.50
2022-08-12T08:26:02.153Z,34.50
2022-08-12T08:28:29.394Z,34.00
2022-08-12T08:30:56.191Z,33.40
2022-08-12T08:34:09.391Z,32.90
2022-08-12T08:36:16.579Z,33.00
2022-08-12T08:38:57.693Z,33.20
2022-08-12T08:42:17.225Z,33.40
2022-08-12T08:44:31.611Z,33.00
2022-08-12T08:46:58.564Z,32.90
2022-08-12T08:49:25.693Z,32.60
2022-08-12T08:51:52.648Z,32.60
2022-08-12T08:54:19.556Z,32.60
2022-08-12T08:56:50.206Z,32.60
2022-08-12T08:59:19.377Z,32.60
2022-08-12T09:01:47.581Z,32.80
2022-08-12T09:05:07.153Z,32.70
2022-08-12T09:07:17.052Z,32.80
2022-08-12T09:10:02.316Z,32.90
2022-08-12T09:12:55.253Z,33.00
2022-08-12T09:15:35.550Z,33.20
2022-08-12T09:18:08.847Z,33.10
2022-08-12T09:20:38.734Z,33.10
2022-08-12T09:23:59.321Z,33.10
2022-08-12T09:25:58.311Z,33.10
2022-08-12T09:28:32.959Z,33.20
2022-08-12T09:31:00.297Z,33.50
2022-08-12T09:34:25.136Z,33.70
2022-08-12T09:36:30.930Z,33.30
2022-08-12T09:39:01.056Z,32.60
2022-08-12T09:42:33.689Z,32.40
2022-08-12T09:44:39.050Z,32.00
2022-08-12T09:47:10.451Z,31.80
2022-08-12T09:49:42.248Z,31.60
2022-08-12T09:52:15.605Z,31.10
2022-08-12T09:54:43.005Z,30.40
2022-08-12T09:58:46.521Z,30.20
2022-08-12T10:00:16.739Z,29.90
2022-08-12T10:03:05.719Z,29.70
2022-08-12T10:06:27.187Z,29.60
2022-08-12T10:08:27.439Z,29.40
2022-08-12T10:11:20.480Z,29.20
2022-08-12T10:13:48.772Z,29.20
2022-08-12T10:16:22.148Z,29.40
2022-08-12T10:18:53.990Z,29.50
2022-08-12T10:21:23.323Z,29.40
2022-08-12T10:23:56.776Z,29.20
2022-08-12T10:26:42.981Z,29.00
2022-08-12T10:30:37.384Z,29.10
2022-08-12T10:32:44.718Z,29.10
2022-08-12T10:35:09.513Z,29.00
2022-08-12T10:38:34.014Z,29.00
2022-08-12T10:40:31.615Z,29.10
2022-08-12T10:43:18.039Z,29.20
2022-08-12T10:45:47.174Z,29.40
2022-08-12T10:48:21.651Z,29.40
2022-08-12T10:51:00.347Z,29.30
2022-08-12T10:53:46.058Z,29.20
2022-08-12T10:56:17.984Z,29.20
2022-08-12T10:58:46.137Z,29.20
2022-08-12T11:03:02.325Z,29.30
2022-08-12T11:04:23.648Z,29.50
2022-08-12T11:07:08.366Z,29.50
2022-08-12T11:10:00.787Z,29.50
2022-08-12T11:12:55.586Z,29.30
2022-08-12T11:15:33.539Z,29.40
2022-08-12T11:18:11.957Z,29.40
2022-08-12T11:20:47.962Z,29.50
2022-08-12T11:23:35.865Z,29.60
2022-08-12T11:26:05.936Z,29.70
2022-08-12T11:28:37.604Z,29.60
2022-08-12T11:31:11.902Z,29.50
2022-08-12T11:34:05.665Z,29.50
2022-08-12T11:36:28.342Z,29.50
2022-08-12T11:38:55.726Z,29.60
2022-08-12T11:41:30.860Z,29.80
2022-08-12T11:44:35.703Z,29.80
2022-08-12T11:46:52.781Z,29.60
2022-08-12T11:49:32.461Z,29.60
2022-08-12T11:52:01.625Z,29.70
2022-08-12T11:54:29.572Z,29.80
2022-08-12T11:56:59.500Z,29.90
2022-08-12T12:02:19.230Z,30.10
2022-08-12T12:04:52.683Z,30.00
2022-08-12T12:08:36.281Z,30.10
2022-08-12T12:10:15.654Z,30.10
2022-08-12T12:12:49.408Z,30.10
2022-08-12T12:15:24.884Z,30.10
2022-08-12T12:18:04.605Z,30.10
2022-08-12T12:20:34.941Z,30.10
2022-08-12T12:23:01.821Z,30.20
2022-08-12T12:25:59.391Z,30.20
2022-08-12T12:28:35.276Z,30.20
2022-08-12T12:31:04.078Z,30.10
2022-08-12T12:33:56.938Z,30.00
2022-08-12T12:36:24.041Z,30.10
2022-08-12T12:38:56.380Z,30.10
2022-08-12T12:42:40.605Z,30.20
2022-08-12T12:44:13.450Z,30.30
2022-08-12T12:46:54.745Z,30.30
2022-08-12T12:49:26.136Z,30.20
2022-08-12T12:52:19.037Z,30.10
2022-08-12T12:54:52.781Z,30.10
2022-08-12T12:57:36.094Z,30.00
2022-08-12T13:00:18.012Z,30.10
2022-08-12T13:02:53.894Z,30.20
2022-08-12T13:05:42.974Z,30.10
2022-08-12T13:08:28.514Z,30.20
2022-08-12T13:11:04.803Z,30.20
2022-08-12T13:14:08.994Z,30.30
2022-08-12T13:16:21.566Z,30.40
2022-08-12T13:18:53.693Z,30.30
2022-08-12T13:21:33.627Z,30.30
2022-08-12T13:24:09.542Z,30.40
2022-08-12T13:26:40.200Z,30.30
2022-08-12T13:29:11.284Z,30.40
2022-08-12T13:31:46.500Z,30.40
2022-08-12T13:34:31.829Z,30.30
2022-08-12T13:37:04.536Z,30.30
2022-08-12T13:39:37.205Z,30.30
2022-08-12T13:42:13.711Z,30.40
2022-08-12T13:44:41.482Z,30.40
2022-08-12T13:47:18.468Z,30.40
2022-08-12T13:49:55.540Z,30.40
2022-08-12T13:52:23.751Z,30.30
2022-08-12T13:54:54.141Z,30.30
2022-08-12T13:57:26.364Z,30.30
2022-08-12T13:59:55.402Z,30.30
2022-08-12T14:02:27.289Z,30.30
2022-08-12T14:04:56.431Z,30.20
2022-08-12T14:07:26.269Z,30.20
2022-08-12T14:10:16.421Z,30.30
2022-08-12T14:12:54.083Z,30.20
2022-08-12T14:15:36.737Z,30.40
2022-08-12T14:18:15.850Z,30.40
2022-08-12T14:20:49.022Z,30.60
2022-08-12T14:24:05.510Z,30.40
2022-08-12T14:26:11.651Z,30.30
2022-08-12T14:28:39.898Z,30.20
2022-08-12T14:31:18.523Z,30.20
2022-08-12T14:33:48.819Z,30.20
2022-08-12T14:36:20.892Z,30.40
2022-08-12T14:38:49.492Z,30.40
2022-08-12T14:41:18.490Z,30.50
2022-08-12T14:44:04.580Z,30.50
2022-08-12T14:46:35.054Z,30.50
2022-08-12T14:49:27.534Z,30.50
2022-08-12T14:53:03.384Z,30.60
2022-08-12T14:57:24.278Z,30.70
2022-08-12T15:00:23.308Z,30.60
2022-08-12T15:02:53.586Z,30.60
2022-08-12T15:06:03.430Z,30.60
2022-08-12T15:08:12.738Z,30.50
2022-08-12T15:10:46.207Z,30.40
2022-08-12T15:13:23.208Z,30.50
2022-08-12T15:15:50.190Z,30.50
2022-08-12T15:18:20.886Z,30.40
2022-08-12T15:20:54.768Z,30.40
2022-08-12T15:23:24.337Z,30.40
2022-08-12T15:26:02.668Z,30.40
2022-08-12T15:28:34.663Z,30.50
2022-08-12T15:31:02.784Z,30.50
2022-08-12T15:33:45.042Z,30.50
2022-08-12T15:36:19.474Z,30.50
2022-08-12T15:38:52.006Z,30.50
2022-08-12T15:41:22.261Z,30.50
2022-08-12T15:44:16.104Z,30.50
2022-08-12T15:46:37.306Z,30.40
2022-08-12T15:49:04.290Z,30.50
2022-08-12T15:51:57.450Z,30.40
2022-08-12T15:54:33.886Z,30.40
2022-08-12T15:57:08.198Z,30.50
2022-08-12T15:59:59.934Z,30.40
2022-08-12T16:02:27.083Z,30.40
2022-08-12T16:04:56.257Z,30.40
2022-08-12T16:07:29.664Z,30.40
2022-08-12T16:10:05.708Z,30.40
2022-08-12T16:12:56.537Z,30.40
2022-08-12T16:15:26.354Z,30.40
2022-08-12T16:18:18.318Z,30.40
2022-08-12T16:20:42.587Z,30.40
2022-08-12T16:23:36.100Z,30.40
2022-08-12T16:26:14.607Z,30.40
2022-08-12T16:28:43.666Z,30.40
2022-08-12T16:31:14.472Z,30.30
2022-08-12T16:33:59.346Z,30.30
2022-08-12T16:36:30.654Z,30.20
2022-08-12T16:39:01.458Z,30.20
2022-08-12T16:41:39.456Z,30.10
2022-08-12T16:44:08.886Z,30.20
2022-08-12T16:46:37.522Z,30.20
2022-08-12T16:49:09.305Z,30.10
2022-08-12T16:51:46.297Z,30.00
2022-08-12T16:54:35.974Z,30.00
2022-08-12T16:57:05.736Z,29.90
2022-08-12T16:59:54.902Z,29.90
2022-08-12T17:02:34.186Z,29.90
2022-08-12T17:05:05.026Z,29.80
2022-08-12T17:07:38.064Z,29.80
2022-08-12T17:10:07.575Z,29.80
2022-08-12T17:12:37.622Z,29.80
2022-08-12T17:15:21.314Z,29.70
2022-08-12T17:18:15.211Z,29.70
2022-08-12T17:20:47.489Z,29.60
2022-08-12T17:23:17.066Z,29.60
2022-08-12T17:25:46.188Z,29.60
2022-08-12T17:28:16.654Z,29.50
2022-08-12T17:30:44.659Z,29.50
2022-08-12T17:33:17.158Z,29.50
2022-08-12T17:36:03.165Z,29.50
2022-08-12T17:38:30.103Z,29.40
2022-08-12T17:40:57.860Z,29.40
2022-08-12T17:43:57.312Z,29.30
2022-08-12T17:46:23.602Z,29.30
2022-08-12T17:48:54.903Z,29.20
2022-08-12T17:51:24.072Z,29.20
2022-08-12T17:54:11.255Z,29.10
2022-08-12T17:56:40.724Z,29.10
2022-08-12T17:59:12.437Z,29.00
2022-08-12T18:01:44.322Z,29.00
2022-08-12T18:04:22.775Z,28.90
2022-08-12T18:07:02.382Z,28.80
2022-08-12T18:09:32.121Z,28.70
2022-08-12T18:12:24.689Z,28.70
2022-08-12T18:15:08.741Z,28.60
2022-08-12T18:17:39.237Z,28.50
2022-08-12T18:20:15.425Z,28.50
2022-08-12T18:22:46.792Z,28.40
2022-08-12T18:26:15.852Z,28.30
2022-08-12T18:28:29.240Z,28.30
2022-08-12T18:31:03.481Z,28.20
2022-08-12T18:33:43.796Z,28.10
2022-08-12T18:36:13.639Z,28.00
2022-08-12T18:38:44.839Z,28.00
2022-08-12T18:41:33.684Z,27.90
2022-08-12T18:44:07.717Z,27.80
2022-08-12T18:46:54.342Z,27.70
2022-08-12T18:49:34.937Z,27.60
2022-08-12T18:52:08.196Z,27.50
2022-08-12T18:54:41.490Z,27.40
2022-08-12T18:57:19.580Z,27.30
2022-08-12T19:00:07.607Z,27.20
2022-08-12T19:02:40.460Z,27.10
2022-08-12T19:05:10.590Z,27.00
2022-08-12T19:07:58.171Z,26.80
2022-08-12T19:10:30.851Z,26.80
2022-08-12T19:13:23.064Z,26.60
2022-08-12T19:15:54.279Z,26.60
2022-08-12T19:18:24.474Z,26.40
2022-08-12T19:20:56.811Z,26.30
2022-08-12T19:23:27.794Z,26.20
2022-08-12T19:26:10.487Z,26.00
2022-08-12T19:28:38.648Z,25.90
2022-08-12T19:31:56.502Z,25.70
2022-08-12T19:38:04.493Z,25.60
2022-08-12T19:40:20.273Z,25.60
2022-08-12T19:43:01.492Z,25.50
2022-08-12T19:45:43.934Z,25.50
2022-08-12T19:48:20.593Z,25.30
2022-08-12T19:50:53.499Z,25.20
2022-08-12T19:53:24.860Z,25.00
2022-08-12T19:55:57.285Z,24.90
2022-08-12T19:58:25.439Z,24.90
2022-08-12T20:00:56.049Z,24.90
2022-08-12T20:03:38.252Z,24.90
2022-08-12T20:06:22.050Z,24.90
2022-08-12T20:08:56.779Z,24.90
2022-08-12T20:12:09.263Z,24.80
2022-08-12T20:14:19.525Z,24.70
2022-08-12T20:16:51.637Z,24.50
2022-08-12T20:19:23.411Z,24.40
2022-08-12T20:21:50.669Z,24.40
2022-08-12T20:24:19.120Z,24.30
2022-08-12T20:26:48.168Z,24.40
2022-08-12T20:29:16.418Z,24.40
2022-08-12T20:31:44.508Z,24.40
2022-08-12T20:34:12.309Z,24.30
2022-08-12T20:36:44.944Z,24.20
2022-08-12T20:39:17.571Z,24.20
2022-08-12T20:42:07.241Z,24.20
2022-08-12T20:44:38.807Z,24.20
2022-08-12T20:47:19.409Z,24.20
2022-08-12T20:49:55.981Z,24.10
2022-08-12T20:52:29.917Z,24.10
2022-08-12T20:54:58.289Z,24.00
2022-08-12T20:57:37.853Z,24.00
2022-08-12T21:00:18.132Z,24.00
2022-08-12T21:02:50.061Z,24.00
2022-08-12T21:05:41.228Z,23.70
2022-08-12T21:08:27.323Z,23.50
2022-08-12T21:10:55.397Z,23.50
2022-08-12T21:13:29.559Z,23.50
2022-08-12T21:16:06.767Z,23.60
2022-08-12T21:18:38.141Z,23.60
2022-08-12T21:21:06.780Z,23.70
2022-08-12T21:23:50.630Z,23.70
2022-08-12T21:26:18.139Z,23.80
2022-08-12T21:28:58.487Z,23.80
2022-08-12T21:32:35.917Z,23.70
2022-08-12T21:34:19.165Z,23.60
2022-08-12T21:36:52.877Z,23.50
2022-08-12T21:39:27.845Z,23.30
2022-08-12T21:42:06.621Z,23.30
2022-08-12T21:45:46.652Z,23.30
2022-08-12T21:47:23.499Z,23.20
2022-08-12T21:50:02.828Z,23.10
2022-08-12T21:52:48.986Z,23.10
2022-08-12T21:55:17.934Z,23.10
2022-08-12T21:58:02.849Z,23.00
2022-08-12T22:00:36.958Z,23.00
2022-08-12T22:04:04.041Z,22.90
2022-08-12T22:06:31.235Z,22.90
2022-08-12T22:09:09.073Z,22.80
2022-08-12T22:11:49.106Z,22.80
2022-08-12T22:14:24.253Z,22.80
2022-08-12T22:16:55.085Z,22.80
2022-08-12T22:19:23.456Z,22.80
2022-08-12T22:21:54.563Z,22.80
2022-08-12T22:24:26.209Z,22.90
2022-08-12T22:26:57.706Z,22.90
2022-08-12T22:29:43.773Z,22.90
2022-08-12T22:32:12.195Z,22.90
2022-08-12T22:34:39.673Z,22.90
2022-08-12T22:37:11.203Z,22.90
2022-08-12T22:39:46.673Z,22.90
2022-08-12T22:42:34.311Z,22.80
2022-08-12T22:45:23.019Z,22.90
2022-08-12T22:47:55.189Z,22.80
2022-08-12T22:50:28.918Z,22.90
2022-08-12T22:53:15.443Z,22.80
2022-08-12T22:56:00.314Z,22.70
2022-08-12T22:58:40.274Z,22.80
2022-08-12T23:01:11.049Z,22.80
2022-08-12T23:03:48.116Z,22.70
2022-08-12T23:06:23.856Z,22.70
2022-08-12T23:08:52.875Z,22.60
2022-08-12T23:11:23.649Z,22.40
2022-08-12T23:14:01.877Z,22.30
2022-08-12T23:16:33.383Z,22.20
2022-08-12T23:19:10.775Z,22.20
2022-08-12T23:22:05.589Z,22.20
2022-08-12T23:24:56.039Z,22.10
2022-08-12T23:27:50.945Z,22.10
2022-08-12T23:30:25.266Z,22.00
2022-08-12T23:33:00.607Z,21.80
2022-08-12T23:35:58.769Z,21.70
2022-08-12T23:38:31.287Z,21.80
2022-08-12T23:41:00.770Z,21.80
2022-08-12T23:43:39.416Z,21.90
2022-08-12T23:46:12.225Z,21.90
2022-08-12T23:48:47.909Z,21.80
2022-08-12T23:51:25.336Z,21.80
2022-08-12T23:53:59.741Z,21.70
2022-08-12T23:56:33.121Z,21.70
2022-08-12T23:59:08.666Z,21.70
